createdAt,value
2023-02-22T00:01:45.426Z,11.50
2023-02-22T00:04:11.949Z,11.50
2023-02-22T00:06:38.430Z,11.50
2023-02-22T00:09:04.973Z,11.50
2023-02-22T00:11:31.557Z,11.50
2023-02-22T00:13:58.181Z,11.50
2023-02-22T00:16:24.707Z,11.50
2023-02-22T00:18:51.220Z,11.50
2023-02-22T00:21:17.981Z,11.50
2023-02-22T00:23:44.633Z,11.40
2023-02-22T00:26:11.119Z,11.50
2023-02-22T00:28:37.616Z,11.50
2023-02-22T00:31:04.082Z,11.50
2023-02-22T00:33:30.608Z,11.50
2023-02-22T00:35:57.094Z,11.50
2023-02-22T00:38:23.820Z,11.50
2023-02-22T00:40:50.448Z,11.40
2023-02-22T00:43:16.921Z,11.40
2023-02-22T00:45:43.414Z,11.40
2023-02-22T00:48:09.896Z,11.40
2023-02-22T00:50:36.460Z,11.50
2023-02-22T00:53:02.932Z,11.50
2023-02-22T00:55:29.439Z,11.40
2023-02-22T00:57:55.930Z,11.40
2023-02-22T01:00:22.424Z,11.40
2023-02-22T01:02:48.884Z,11.40
2023-02-22T01:05:15.409Z,11.50
2023-02-22T01:07:42.071Z,11.40
2023-02-22T01:10:08.578Z,11.50
2023-02-22T01:12:39.728Z,11.40
2023-02-22T01:15:06.216Z,11.50
2023-02-22T01:17:32.683Z,11.50
2023-02-22T01:19:59.191Z,11.50
2023-02-22T01:22:25.649Z,11.40
2023-02-22T01:24:52.099Z,11.40
2023-02-22T01:27:18.593Z,11.40
2023-02-22T01:29:45.091Z,11.40
2023-02-22T01:32:11.594Z,11.40
2023-02-22T01:34:38.123Z,11.40
2023-02-22T01:37:04.601Z,11.40
2023-02-22T01:39:31.082Z,11.40
2023-02-22T01:41:57.562Z,11.40
2023-02-22T01:44:24.033Z,11.40
2023-02-22T01:46:50.523Z,11.40
2023-02-22T01:49:17.030Z,11.40
2023-02-22T01:51:43.493Z,11.40
2023-02-22T01:54:09.971Z,11.40
2023-02-22T01:56:36.438Z,11.40
2023-02-22T01:59:02.905Z,11.50
2023-02-22T02:01:29.399Z,11.40
2023-02-22T02:03:55.900Z,11.50
2023-02-22T02:06:22.380Z,11.50
2023-02-22T02:08:48.855Z,11.40
2023-02-22T02:11:15.626Z,11.50
2023-02-22T02:13:42.328Z,11.40
2023-02-22T02:16:08.825Z,11.50
2023-02-22T02:18:35.302Z,11.50
2023-02-22T02:21:01.832Z,11.50
2023-02-22T02:23:28.316Z,11.50
2023-02-22T02:25:54.805Z,11.50
2023-02-22T02:28:21.282Z,11.50
2023-02-22T02:30:47.754Z,11.40
2023-02-22T02:33:14.217Z,11.50
2023-02-22T02:35:40.699Z,11.40
2023-02-22T02:38:07.163Z,11.50
2023-02-22T02:40:33.675Z,11.40
2023-02-22T02:43:00.180Z,11.50
2023-02-22T02:45:26.643Z,11.50
2023-02-22T02:47:53.124Z,11.40
2023-02-22T02:50:19.599Z,11.40
2023-02-22T02:52:46.066Z,11.50
2023-02-22T02:55:12.541Z,11.40
2023-02-22T02:57:39.013Z,11.50
2023-02-22T03:00:05.479Z,11.40
2023-02-22T03:02:31.948Z,11.40
2023-02-22T03:04:58.412Z,11.40
2023-02-22T03:07:24.911Z,11.50
2023-02-22T03:09:51.380Z,11.50
2023-02-22T03:12:17.870Z,11.40
2023-02-22T03:14:44.360Z,11.40
2023-02-22T03:17:10.869Z,11.40
2023-02-22T03:19:37.346Z,11.50
2023-02-22T03:22:03.834Z,11.40
2023-02-22T03:24:30.306Z,11.50
2023-02-22T03:26:56.775Z,11.40
2023-02-22T03:29:27.660Z,11.40
2023-02-22T03:31:54.173Z,11.40
2023-02-22T03:34:20.643Z,11.50
2023-02-22T03:36:47.102Z,11.40
2023-02-22T03:39:13.585Z,11.50
2023-02-22T03:41:40.050Z,11.40
2023-02-22T03:44:06.601Z,11.40
2023-02-22T03:46:33.120Z,11.40
2023-02-22T03:48:59.603Z,11.50
2023-02-22T03:51:26.076Z,11.50
2023-02-22T03:53:52.579Z,11.40
2023-02-22T03:56:19.050Z,11.40
2023-02-22T03:58:45.545Z,11.50
2023-02-22T04:01:12.019Z,11.50
2023-02-22T04:03:38.542Z,11.40
2023-02-22T04:06:05.017Z,11.40
2023-02-22T04:08:31.512Z,11.40
2023-02-22T04:10:57.985Z,11.40
2023-02-22T04:13:24.468Z,11.40
2023-02-22T04:15:50.974Z,11.40
2023-02-22T04:18:17.484Z,11.40
2023-02-22T04:20:43.966Z,11.40
2023-02-22T04:23:10.426Z,11.40
2023-02-22T04:25:36.910Z,11.40
2023-02-22T04:28:03.370Z,11.40
2023-02-22T04:30:29.882Z,11.40
2023-02-22T04:32:56.389Z,11.40
2023-02-22T04:35:22.857Z,11.40
2023-02-22T04:37:49.337Z,11.40
2023-02-22T04:40:15.822Z,11.40
2023-02-22T04:42:42.297Z,11.40
2023-02-22T04:45:09.708Z,11.50
2023-02-22T04:47:36.189Z,11.40
2023-02-22T04:50:03.735Z,11.50
2023-02-22T04:52:30.219Z,11.50
2023-02-22T04:54:56.699Z,11.50
2023-02-22T04:57:23.170Z,11.50
2023-02-22T04:59:49.651Z,11.50
2023-02-22T05:02:16.134Z,11.50
2023-02-22T05:04:42.771Z,11.50
2023-02-22T05:07:09.272Z,11.40
2023-02-22T05:09:35.771Z,11.50
2023-02-22T05:12:02.234Z,11.50
2023-02-22T05:14:28.708Z,11.50
2023-02-22T05:16:55.173Z,11.50
2023-02-22T05:19:21.658Z,11.50
2023-02-22T05:21:48.131Z,11.50
2023-02-22T05:24:14.602Z,11.50
2023-02-22T05:26:41.089Z,11.40
2023-02-22T05:29:07.557Z,11.50
2023-02-22T05:31:34.097Z,11.50
2023-02-22T05:34:00.604Z,11.50
2023-02-22T05:36:27.759Z,11.50
2023-02-22T05:38:54.220Z,11.50
2023-02-22T05:41:20.711Z,11.50
2023-02-22T05:43:47.172Z,11.50
2023-02-22T05:46:13.673Z,11.50
2023-02-22T05:48:40.141Z,11.50
2023-02-22T05:51:06.609Z,11.50
2023-02-22T05:53:33.085Z,11.50
2023-02-22T05:55:59.563Z,11.50
2023-02-22T05:58:26.032Z,11.50
2023-02-22T06:00:52.538Z,11.50
2023-02-22T06:03:19.004Z,11.40
2023-02-22T06:05:45.554Z,11.40
2023-02-22T06:08:12.078Z,11.50
2023-02-22T06:10:38.555Z,11.50
2023-02-22T06:13:05.030Z,11.50
2023-02-22T06:15:31.537Z,11.50
2023-02-22T06:17:58.016Z,11.40
2023-02-22T06:20:24.496Z,11.40
2023-02-22T06:22:50.998Z,11.40
2023-02-22T06:25:17.480Z,11.40
2023-02-22T06:27:43.957Z,11.40
2023-02-22T06:30:12.280Z,11.50
2023-02-22T06:32:39.700Z,11.40
2023-02-22T06:35:06.181Z,11.40
2023-02-22T06:37:32.672Z,11.40
2023-02-22T06:40:04.719Z,11.40
2023-02-22T06:42:31.737Z,11.40
2023-02-22T06:44:58.221Z,11.40
2023-02-22T06:47:24.694Z,11.40
2023-02-22T06:49:51.166Z,11.40
2023-02-22T06:52:17.627Z,11.40
2023-02-22T06:54:44.107Z,11.40
2023-02-22T06:57:10.578Z,11.40
2023-02-22T06:59:37.032Z,11.40
2023-02-22T07:02:03.530Z,11.40
2023-02-22T07:04:35.104Z,11.40
2023-02-22T07:07:02.585Z,11.40
2023-02-22T07:09:29.070Z,11.40
2023-02-22T07:11:55.576Z,11.40
2023-02-22T07:14:22.048Z,11.40
2023-02-22T07:16:48.530Z,11.40
2023-02-22T07:19:15.024Z,11.40
2023-02-22T07:21:41.497Z,11.40
2023-02-22T07:24:07.965Z,11.40
2023-02-22T07:26:34.466Z,11.40
2023-02-22T07:29:00.940Z,11.40
2023-02-22T07:31:29.599Z,11.40
2023-02-22T07:33:56.208Z,11.40
2023-02-22T07:36:22.700Z,11.40
2023-02-22T07:38:49.193Z,11.40
2023-02-22T07:41:15.815Z,11.30
2023-02-22T07:43:42.469Z,11.30
2023-02-22T07:46:08.987Z,11.30
2023-02-22T07:48:35.485Z,11.40
2023-02-22T07:51:01.998Z,11.30
2023-02-22T07:53:28.914Z,11.30
2023-02-22T07:55:55.514Z,11.40
2023-02-22T07:58:21.969Z,11.40
2023-02-22T08:00:48.496Z,11.30
2023-02-22T08:03:15.852Z,11.30
2023-02-22T08:05:42.335Z,11.40
2023-02-22T08:08:08.820Z,11.30
2023-02-22T08:10:35.345Z,11.30
2023-02-22T08:13:01.840Z,11.30
2023-02-22T08:15:28.311Z,11.40
2023-02-22T08:17:54.768Z,11.30
2023-02-22T08:20:21.239Z,11.30
2023-02-22T08:22:47.734Z,11.30
2023-02-22T08:25:14.202Z,11.30
2023-02-22T08:27:40.857Z,11.30
2023-02-22T08:30:07.346Z,11.30
2023-02-22T08:32:34.041Z,11.30
2023-02-22T08:35:00.578Z,11.30
2023-02-22T08:37:27.059Z,11.30
2023-02-22T08:39:53.540Z,11.30
2023-02-22T08:42:20.027Z,11.30
2023-02-22T08:44:46.503Z,11.30
2023-02-22T08:47:13.017Z,11.30
2023-02-22T08:49:39.492Z,11.30
2023-02-22T08:52:05.995Z,11.30
2023-02-22T08:54:32.495Z,11.40
2023-02-22T08:56:58.994Z,11.30
2023-02-22T08:59:25.475Z,11.30
2023-02-22T09:01:52.024Z,11.30
2023-02-22T09:04:18.525Z,11.30
2023-02-22T09:06:45.022Z,11.30
2023-02-22T09:09:11.510Z,11.30
2023-02-22T09:11:37.986Z,11.30
2023-02-22T09:14:04.446Z,11.30
2023-02-22T09:16:30.980Z,11.30
2023-02-22T09:18:57.500Z,11.30
2023-02-22T09:21:23.977Z,11.30
2023-02-22T09:23:50.456Z,11.40
2023-02-22T09:26:16.941Z,11.40
2023-02-22T09:28:43.439Z,11.40
2023-02-22T09:31:09.907Z,11.40
2023-02-22T09:33:36.410Z,11.40
2023-02-22T09:36:02.912Z,11.40
2023-02-22T09:38:29.416Z,11.50
2023-02-22T09:40:55.875Z,11.50
2023-02-22T09:43:22.381Z,11.50
2023-02-22T09:45:48.861Z,11.50
2023-02-22T09:48:22.184Z,11.50
2023-02-22T09:50:49.091Z,11.50
2023-02-22T09:53:15.598Z,11.50
2023-02-22T09:55:42.082Z,11.50
2023-02-22T09:58:08.561Z,11.60
2023-02-22T10:00:35.056Z,11.50
2023-02-22T10:03:03.977Z,11.60
2023-02-22T10:05:30.540Z,11.60
2023-02-22T10:07:57.064Z,11.60
2023-02-22T10:10:23.525Z,11.60
2023-02-22T10:12:50.425Z,11.60
2023-02-22T10:15:16.925Z,11.70
2023-02-22T10:17:43.424Z,11.60
2023-02-22T10:20:09.899Z,11.70
2023-02-22T10:22:36.401Z,11.70
2023-02-22T10:25:02.866Z,11.70
2023-02-22T10:27:29.364Z,11.70
2023-02-22T10:29:55.875Z,11.70
2023-02-22T10:32:22.362Z,11.70
2023-02-22T10:34:48.879Z,11.70
2023-02-22T10:37:15.375Z,11.70
2023-02-22T10:39:41.979Z,11.70
2023-02-22T10:42:08.509Z,11.70
2023-02-22T10:44:35.008Z,11.70
2023-02-22T10:47:01.495Z,11.70
2023-02-22T10:49:27.982Z,11.80
2023-02-22T10:51:54.440Z,11.70
2023-02-22T10:54:20.952Z,11.70
2023-02-22T10:56:47.422Z,11.70
2023-02-22T10:59:13.895Z,11.70
2023-02-22T11:01:40.428Z,11.70
2023-02-22T11:04:06.914Z,11.80
2023-02-22T11:06:33.427Z,11.80
2023-02-22T11:08:59.907Z,11.80
2023-02-22T11:11:26.417Z,11.70
2023-02-22T11:13:52.903Z,11.70
2023-02-22T11:16:19.442Z,11.80
2023-02-22T11:18:45.908Z,11.80
2023-02-22T11:21:12.424Z,11.70
2023-02-22T11:23:38.920Z,11.80
2023-02-22T11:26:05.435Z,11.80
2023-02-22T11:28:31.910Z,11.80
2023-02-22T11:30:58.547Z,11.80
2023-02-22T11:33:25.081Z,11.80
2023-02-22T11:35:51.595Z,11.80
2023-02-22T11:38:18.050Z,11.80
2023-02-22T11:40:44.532Z,11.80
2023-02-22T11:43:11.021Z,11.80
2023-02-22T11:45:41.890Z,11.80
2023-02-22T11:48:10.773Z,11.80
2023-02-22T11:50:37.260Z,11.80
2023-02-22T11:53:03.729Z,11.80
2023-02-22T11:55:42.326Z,11.80
2023-02-22T11:58:09.458Z,11.90
2023-02-22T12:00:35.945Z,11.80
2023-02-22T12:03:02.411Z,11.90
2023-02-22T12:05:28.964Z,11.90
2023-02-22T12:07:55.436Z,11.90
2023-02-22T12:10:21.945Z,11.90
2023-02-22T12:12:48.422Z,11.90
2023-02-22T12:15:14.958Z,11.90
2023-02-22T12:17:43.658Z,11.90
2023-02-22T12:20:12.251Z,11.90
2023-02-22T12:22:38.733Z,11.90
2023-02-22T12:25:09.494Z,11.90
2023-02-22T12:27:36.428Z,11.90
2023-02-22T12:30:10.144Z,11.90
2023-02-22T12:32:36.700Z,12.00
2023-02-22T12:35:03.181Z,11.90
2023-02-22T12:37:29.640Z,11.90
2023-02-22T12:39:56.105Z,12.00
2023-02-22T12:42:22.579Z,12.00
2023-02-22T12:44:49.044Z,12.00
2023-02-22T12:47:15.514Z,12.00
2023-02-22T12:49:41.989Z,12.00
2023-02-22T12:52:20.855Z,12.00
2023-02-22T12:54:47.947Z,12.00
2023-02-22T12:57:14.451Z,12.00
2023-02-22T12:59:40.913Z,12.00
2023-02-22T13:02:07.403Z,12.00
2023-02-22T13:04:33.886Z,12.00
2023-02-22T13:07:00.403Z,12.00
2023-02-22T13:09:26.870Z,12.00
2023-02-22T13:11:53.375Z,12.00
2023-02-22T13:14:19.864Z,12.00
2023-02-22T13:16:46.370Z,12.00
2023-02-22T13:19:12.839Z,12.00
2023-02-22T13:21:39.333Z,12.00
2023-02-22T13:24:05.822Z,12.00
2023-02-22T13:26:32.329Z,12.00
2023-02-22T13:28:58.795Z,12.00
2023-02-22T13:31:25.343Z,12.00
2023-02-22T13:33:52.111Z,12.00
2023-02-22T13:36:18.959Z,12.00
2023-02-22T13:38:45.696Z,12.00
2023-02-22T13:41:12.172Z,12.10
2023-02-22T13:43:38.664Z,12.00
2023-02-22T13:46:05.161Z,12.00
2023-02-22T13:48:31.719Z,12.00
2023-02-22T13:50:58.199Z,12.10
2023-02-22T13:53:24.692Z,12.00
2023-02-22T13:55:51.154Z,12.00
2023-02-22T13:58:17.634Z,12.00
2023-02-22T14:00:46.153Z,12.00
2023-02-22T14:03:12.621Z,12.00
2023-02-22T14:05:39.108Z,12.10
2023-02-22T14:08:05.643Z,12.00
2023-02-22T14:10:32.144Z,12.00
2023-02-22T14:12:58.617Z,12.00
2023-02-22T14:15:32.142Z,12.00
2023-02-22T14:17:58.611Z,12.00
2023-02-22T14:20:25.080Z,12.00
2023-02-22T14:22:51.753Z,12.00
2023-02-22T14:25:28.014Z,12.00
2023-02-22T14:27:55.017Z,12.00
2023-02-22T14:30:21.531Z,12.00
2023-02-22T14:32:48.207Z,12.00
2023-02-22T14:35:27.106Z,12.10
2023-02-22T14:37:54.998Z,12.10
2023-02-22T14:40:21.550Z,12.00
2023-02-22T14:42:48.101Z,12.10
2023-02-22T14:45:14.624Z,12.10
2023-02-22T14:47:41.121Z,12.00
2023-02-22T14:50:07.630Z,12.10
2023-02-22T14:52:34.129Z,12.10
2023-02-22T14:55:00.615Z,12.00
2023-02-22T14:57:29.190Z,12.00
2023-02-22T14:59:56.344Z,12.00
2023-02-22T15:02:22.882Z,12.10
2023-02-22T15:04:52.283Z,12.10
2023-02-22T15:07:18.776Z,12.00
2023-02-22T15:09:46.224Z,12.10
2023-02-22T15:12:12.722Z,12.10
2023-02-22T15:14:39.245Z,12.00
2023-02-22T15:17:05.711Z,12.10
2023-02-22T15:19:32.205Z,12.00
2023-02-22T15:21:58.697Z,12.00
2023-02-22T15:24:25.178Z,12.00
2023-02-22T15:27:01.334Z,12.10
2023-02-22T15:29:29.121Z,12.10
2023-02-22T15:31:58.245Z,12.10
2023-02-22T15:34:24.746Z,12.10
2023-02-22T15:36:51.261Z,12.00
2023-02-22T15:39:17.876Z,12.00
2023-02-22T15:41:44.346Z,12.10
2023-02-22T15:44:22.759Z,12.00
2023-02-22T15:46:49.978Z,12.00
2023-02-22T15:49:16.467Z,12.10
2023-02-22T15:51:42.939Z,12.10
2023-02-22T15:54:18.332Z,12.10
2023-02-22T15:56:51.737Z,12.10
2023-02-22T15:59:18.316Z,12.10
2023-02-22T16:01:44.944Z,12.10
2023-02-22T16:04:17.076Z,12.10
2023-02-22T16:06:43.568Z,12.10
2023-02-22T16:11:53.828Z,12.00
2023-02-22T16:14:20.321Z,12.10
2023-02-22T16:16:46.852Z,12.00
2023-02-22T16:19:13.335Z,12.00
2023-02-22T16:21:39.817Z,12.00
2023-02-22T16:24:15.420Z,12.00
2023-02-22T16:26:42.276Z,12.00
2023-02-22T16:29:08.834Z,12.10
2023-02-22T16:31:35.399Z,12.00
2023-02-22T16:34:01.924Z,12.10
2023-02-22T16:36:28.405Z,12.00
2023-02-22T16:38:54.875Z,12.10
2023-02-22T16:41:21.369Z,12.00
2023-02-22T16:43:47.889Z,12.00
2023-02-22T16:46:14.433Z,12.00
2023-02-22T16:48:40.902Z,12.10
2023-02-22T16:51:07.386Z,12.10
2023-02-22T16:53:33.863Z,12.10
2023-02-22T16:56:00.329Z,12.00
2023-02-22T16:58:26.802Z,12.00
2023-02-22T17:00:53.310Z,12.00
2023-02-22T17:03:19.785Z,12.00
2023-02-22T17:05:46.325Z,12.00
2023-02-22T17:08:12.880Z,12.00
2023-02-22T17:10:39.353Z,12.00
2023-02-22T17:13:21.305Z,12.00
2023-02-22T17:15:49.474Z,12.00
2023-02-22T17:18:15.985Z,12.00
2023-02-22T17:20:42.484Z,12.00
2023-02-22T17:23:08.970Z,12.00
2023-02-22T17:25:35.462Z,12.00
2023-02-22T17:28:01.916Z,12.00
2023-02-22T17:30:28.493Z,12.00
2023-02-22T17:32:55.016Z,12.00
2023-02-22T17:35:21.486Z,12.00
2023-02-22T17:37:47.969Z,12.00
2023-02-22T17:40:14.471Z,12.00
2023-02-22T17:42:46.342Z,12.00
2023-02-22T17:45:12.817Z,12.00
2023-02-22T17:47:39.300Z,12.00
2023-02-22T17:50:05.866Z,12.00
2023-02-22T17:52:32.394Z,12.00
2023-02-22T17:54:58.856Z,12.00
2023-02-22T17:57:25.314Z,12.00
2023-02-22T17:59:51.794Z,12.00
2023-02-22T18:02:18.314Z,12.10
2023-02-22T18:04:44.798Z,12.00
2023-02-22T18:07:11.418Z,12.00
2023-02-22T18:09:38.040Z,12.00
2023-02-22T18:12:04.586Z,12.00
2023-02-22T18:14:31.062Z,12.00
2023-02-22T18:16:57.537Z,12.00
2023-02-22T18:19:23.999Z,12.00
2023-02-22T18:21:50.484Z,12.00
2023-02-22T18:24:16.968Z,12.00
2023-02-22T18:26:46.432Z,12.00
2023-02-22T18:29:12.927Z,12.00
2023-02-22T18:31:39.530Z,12.00
2023-02-22T18:34:06.027Z,12.00
2023-02-22T18:36:32.564Z,12.00
2023-02-22T18:38:59.073Z,12.00
2023-02-22T18:41:28.436Z,12.00
2023-02-22T18:43:54.927Z,12.00
2023-02-22T18:46:21.750Z,12.00
2023-02-22T18:48:48.323Z,12.00
2023-02-22T18:51:14.811Z,12.00
2023-02-22T18:53:41.299Z,12.00
2023-02-22T18:56:07.790Z,12.00
2023-02-22T18:58:34.258Z,12.00
2023-02-22T19:01:00.752Z,12.00
2023-02-22T19:03:27.237Z,12.00
2023-02-22T19:05:53.722Z,12.00
2023-02-22T19:08:20.178Z,12.00
2023-02-22T19:10:46.684Z,12.00
2023-02-22T19:13:13.154Z,12.00
2023-02-22T19:15:39.738Z,12.00
2023-02-22T19:18:10.528Z,12.00
2023-02-22T19:20:37.023Z,12.00
2023-02-22T19:23:03.492Z,12.00
2023-02-22T19:25:29.992Z,12.00
2023-02-22T19:27:56.479Z,12.00
2023-02-22T19:30:22.950Z,12.00
2023-02-22T19:32:49.512Z,12.00
2023-02-22T19:35:15.994Z,12.00
2023-02-22T19:37:42.468Z,12.00
2023-02-22T19:40:08.960Z,12.00
2023-02-22T19:42:35.437Z,12.00
2023-02-22T19:45:01.915Z,12.00
2023-02-22T19:47:28.402Z,12.00
2023-02-22T19:49:55.762Z,12.00
2023-02-22T19:52:23.107Z,12.00
2023-02-22T19:54:49.606Z,12.00
2023-02-22T19:57:16.075Z,12.00
2023-02-22T19:59:42.550Z,12.00
2023-02-22T20:02:09.211Z,12.00
2023-02-22T20:04:35.733Z,11.90
2023-02-22T20:07:02.206Z,11.90
2023-02-22T20:09:28.678Z,11.90
2023-02-22T20:11:55.171Z,11.90
2023-02-22T20:14:21.633Z,11.90
2023-02-22T20:16:48.158Z,11.90
2023-02-22T20:19:14.647Z,11.90
2023-02-22T20:21:41.394Z,11.90
2023-02-22T20:24:07.864Z,12.00
2023-02-22T20:26:34.350Z,11.90
2023-02-22T20:29:00.840Z,11.90
2023-02-22T20:31:27.365Z,11.90
2023-02-22T20:33:53.904Z,11.90
2023-02-22T20:36:20.466Z,11.90
2023-02-22T20:38:46.953Z,11.90
2023-02-22T20:41:13.438Z,11.90
2023-02-22T20:43:39.922Z,11.90
2023-02-22T20:46:06.427Z,11.90
2023-02-22T20:48:32.912Z,11.90
2023-02-22T20:50:59.418Z,11.90
2023-02-22T20:53:25.873Z,11.90
2023-02-22T20:55:52.383Z,11.90
2023-02-22T20:58:18.852Z,11.90
2023-02-22T21:00:45.344Z,11.90
2023-02-22T21:03:11.796Z,11.90
2023-02-22T21:05:38.291Z,11.90
2023-02-22T21:08:04.766Z,11.90
2023-02-22T21:10:31.263Z,11.90
2023-02-22T21:12:58.886Z,11.90
2023-02-22T21:15:26.348Z,11.90
2023-02-22T21:17:52.825Z,11.90
2023-02-22T21:20:19.274Z,11.90
2023-02-22T21:22:45.773Z,11.90
2023-02-22T21:25:12.236Z,11.90
2023-02-22T21:27:38.801Z,11.90
2023-02-22T21:30:10.653Z,11.90
2023-02-22T21:32:37.167Z,11.90
2023-02-22T21:35:03.685Z,11.90
2023-02-22T21:37:30.176Z,11.90
2023-02-22T21:39:56.648Z,11.90
2023-02-22T21:42:23.120Z,11.90
2023-02-22T21:44:49.576Z,11.90
2023-02-22T21:47:16.058Z,11.90
2023-02-22T21:49:42.542Z,11.90
2023-02-22T21:52:09.020Z,11.90
2023-02-22T21:54:35.487Z,11.90
2023-02-22T21:57:01.956Z,11.90
2023-02-22T21:59:28.433Z,11.90
2023-02-22T22:01:54.935Z,11.90
2023-02-22T22:04:21.424Z,11.90
2023-02-22T22:06:47.923Z,11.90
2023-02-22T22:09:14.377Z,11.90
2023-02-22T22:11:40.856Z,11.90
2023-02-22T22:14:07.311Z,11.90
2023-02-22T22:16:33.814Z,11.90
2023-02-22T22:19:00.296Z,11.90
2023-02-22T22:21:26.773Z,11.90
2023-02-22T22:23:53.238Z,11.90
2023-02-22T22:26:19.816Z,11.90
2023-02-22T22:28:46.375Z,11.90
2023-02-22T22:31:12.905Z,11.90
2023-02-22T22:33:39.407Z,11.90
2023-02-22T22:36:05.889Z,11.90
2023-02-22T22:38:32.385Z,11.90
2023-02-22T22:40:58.866Z,11.90
2023-02-22T22:43:25.323Z,11.90
2023-02-22T22:45:51.806Z,11.90
2023-02-22T22:48:18.281Z,11.90
2023-02-22T22:50:44.765Z,11.90
2023-02-22T22:53:11.249Z,11.90
2023-02-22T22:55:37.718Z,11.90
2023-02-22T22:58:05.308Z,11.90
2023-02-22T23:00:31.793Z,11.90
2023-02-22T23:02:58.403Z,11.90
2023-02-22T23:05:24.923Z,11.80
2023-02-22T23:07:51.398Z,11.90
2023-02-22T23:10:17.882Z,11.90
2023-02-22T23:12:44.354Z,11.90
2023-02-22T23:15:10.822Z,11.80
2023-02-22T23:17:37.310Z,11.90
2023-02-22T23:20:03.783Z,11.90
2023-02-22T23:22:30.289Z,11.90
2023-02-22T23:24:56.762Z,11.90
2023-02-22T23:27:23.285Z,11.90
2023-02-22T23:29:49.771Z,11.90
2023-02-22T23:32:16.379Z,11.90
2023-02-22T23:34:42.928Z,11.90
2023-02-22T23:37:09.405Z,11.90
2023-02-22T23:39:35.869Z,11.90
2023-02-22T23:42:02.342Z,11.90
2023-02-22T23:44:28.843Z,11.90
2023-02-22T23:46:58.846Z,11.90
2023-02-22T23:49:25.369Z,11.90
2023-02-22T23:51:51.830Z,11.90
2023-02-22T23:54:18.319Z,11.80
2023-02-22T23:56:44.804Z,11.90
2023-02-22T23:59:11.280Z,11.90
